aviador You're here:

LFRD Decoded Metar

DINARD in FRANCE
Report Time2018-06-25 06:00:00
UTC Time2018-06-25 06:08:28
Flight Rules vfr VFR
Wind060° at 04 kt
W.Decomp.*RWY 12: 2.1 kt HW 3.4 kt LCW
RWY 35: 1.2 kt HW 3.8 kt RCW
W.Rank060° ranks 25
Current wind is below 060° avg. (6.0)
Visibility9999 m
Phenomena:N/A
Clouds:N/A
Expected CloudBase > 2,400 ft AGL from Temp-Dew spread
CeilingNone
Temp17°C (ISA +2)
Dew Point11°C (68% RH)
AAT15.9°C
QNH1025 hPa
Density Alt249 ft
Elevation194 ft
Report Wrong Elevation
Raw Report
METAR LFRD 250600Z AUTO 06004KT CAVOK 17/11 Q1025 NOSIG=

Extra information for LFRD:More info

Metar Taf Metar & Taf Last 4 Metars F.Rules Stats Wind Profile Meteogram Temp Stats Airport Information Weather charts Add Link Nearby VenuesMetar ALERT Operation Metar Decoded Social comments